Time;durP1;ratioP1;P1;durP2;ratioP2;P2;SDS_P1;SDS_P2;PMS_P1;PMS_P2;Temp;Humidity;BMP_temperature;BMP_pressure;BME280_temperature;BME280_humidity;BME280_pressure;Samples;Min_cycle;Max_cycle;Signal;HPM_P1;HPM_P2
2022/03/01 00:00:05;;;;;;;4.30;2.10;;;;;;;;;;4986369;28;20211;-69
2022/03/01 00:02:32;;;;;;;1.77;1.27;;;;;;;;;;4987119;28;20216;-69
2022/03/01 00:04:59;;;;;;;2.10;1.23;;;;;;;;;;4986449;28;20226;-69
2022/03/01 00:07:26;;;;;;;3.67;2.30;;;;;;;;;;4986140;28;20242;-69
2022/03/01 00:09:53;;;;;;;1.93;1.50;;;;;;;;;;4985631;28;20208;-69
2022/03/01 00:12:22;;;;;;;1.47;1.37;;;;;;;;;;4986973;28;20242;-69
2022/03/01 00:14:49;;;;;;;2.57;1.47;;;;;;;;;;4986589;28;20239;-69
2022/03/01 00:17:16;;;;;;;2.97;2.10;;;;;;;;;;4986654;28;20206;-69
2022/03/01 00:19:43;;;;;;;1.37;0.60;;;;;;;;;;4986309;28;20629;-69
2022/03/01 00:22:10;;;;;;;1.97;1.70;;;;;;;;;;4986449;28;20208;-70
2022/03/01 00:24:37;;;;;;;4.17;1.73;;;;;;;;;;4986787;28;20238;-69
2022/03/01 00:27:04;;;;;;;4.70;2.10;;;;;;;;;;4986122;28;20881;-69
2022/03/01 00:29:32;;;;;;;3.00;1.73;;;;;;;;;;4986194;28;20213;-69
2022/03/01 00:31:59;;;;;;;2.13;1.90;;;;;;;;;;4986211;28;20242;-70
2022/03/01 00:34:26;;;;;;;2.87;2.00;;;;;;;;;;4985312;28;20842;-69
2022/03/01 00:36:53;;;;;;;4.07;2.03;;;;;;;;;;4986103;28;20688;-69
2022/03/01 00:39:20;;;;;;;1.80;1.70;;;;;;;;;;4986096;28;20213;-69
2022/03/01 00:41:47;;;;;;;2.40;1.33;;;;;;;;;;4986379;28;20217;-69
2022/03/01 00:44:14;;;;;;;2.27;1.97;;;;;;;;;;4985875;28;20257;-69
2022/03/01 00:46:43;;;;;;;2.20;2.00;;;;;;;;;;4985862;28;20210;-69
2022/03/01 00:49:10;;;;;;;4.67;2.10;;;;;;;;;;4985615;28;20216;-69
2022/03/01 00:51:37;;;;;;;2.00;1.87;;;;;;;;;;4985862;28;20218;-69
2022/03/01 00:54:04;;;;;;;2.03;1.07;;;;;;;;;;4985765;28;20268;-69
2022/03/01 00:56:31;;;;;;;3.33;1.73;;;;;;;;;;4985852;28;20269;-69
2022/03/01 00:58:58;;;;;;;4.53;2.23;;;;;;;;;;4985393;28;20289;-69
2022/03/01 01:01:25;;;;;;;2.67;2.00;;;;;;;;;;4986113;28;20216;-70
2022/03/01 01:03:54;;;;;;;1.83;1.73;;;;;;;;;;4986015;28;20740;-69
2022/03/01 01:06:21;;;;;;;7.60;2.37;;;;;;;;;;4986155;28;20218;-69
2022/03/01 01:08:48;;;;;;;5.33;2.20;;;;;;;;;;4985424;28;20237;-69
2022/03/01 01:11:15;;;;;;;2.87;1.90;;;;;;;;;;4985330;28;20216;-69
2022/03/01 01:13:42;;;;;;;2.33;1.90;;;;;;;;;;4985516;28;20207;-69
2022/03/01 01:16:09;;;;;;;4.67;2.30;;;;;;;;;;4983496;28;20244;-69
2022/03/01 01:18:38;;;;;;;2.33;2.03;;;;;;;;;;4985201;28;20210;-69
2022/03/01 01:21:07;;;;;;;5.07;2.17;;;;;;;;;;4985301;28;20300;-69
2022/03/01 01:23:34;;;;;;;4.93;2.53;;;;;;;;;;4985425;28;20213;-69
2022/03/01 01:26:01;;;;;;;5.00;2.83;;;;;;;;;;4985411;28;20237;-71
2022/03/01 01:28:28;;;;;;;7.27;1.80;;;;;;;;;;4985228;28;20215;-69
2022/03/01 01:30:55;;;;;;;4.00;1.77;;;;;;;;;;4985634;28;20257;-69
2022/03/01 01:33:22;;;;;;;1.53;1.47;;;;;;;;;;4984765;28;20214;-69
2022/03/01 01:35:49;;;;;;;1.23;1.20;;;;;;;;;;4983358;28;20210;-69
2022/03/01 01:38:18;;;;;;;10.03;2.10;;;;;;;;;;4982898;28;20292;-69
2022/03/01 01:40:45;;;;;;;4.63;2.30;;;;;;;;;;4982495;28;20279;-69
2022/03/01 01:43:12;;;;;;;4.03;2.47;;;;;;;;;;4984290;28;20747;-70
2022/03/01 01:45:39;;;;;;;4.00;1.97;;;;;;;;;;4982371;28;20230;-70
2022/03/01 01:48:06;;;;;;;3.80;2.47;;;;;;;;;;4984531;28;20630;-70
2022/03/01 01:50:34;;;;;;;3.90;2.43;;;;;;;;;;4982298;28;20218;-70
2022/03/01 01:53:01;;;;;;;5.37;2.60;;;;;;;;;;4984454;28;20209;-70
2022/03/01 01:55:30;;;;;;;2.57;2.27;;;;;;;;;;4982189;28;20210;-70
2022/03/01 01:57:57;;;;;;;2.03;1.87;;;;;;;;;;4984365;28;20210;-70
2022/03/01 02:00:24;;;;;;;3.13;2.50;;;;;;;;;;4982810;28;20592;-70
2022/03/01 02:02:51;;;;;;;2.33;2.17;;;;;;;;;;4982758;28;20669;-70
2022/03/01 02:05:18;;;;;;;2.97;2.70;;;;;;;;;;4984041;28;20222;-70
2022/03/01 02:07:47;;;;;;;3.53;2.40;;;;;;;;;;4983935;28;20255;-70
2022/03/01 02:10:14;;;;;;;3.10;2.03;;;;;;;;;;4978710;28;20217;-69
2022/03/01 02:12:42;;;;;;;1.70;1.60;;;;;;;;;;4984491;28;20214;-70
2022/03/01 02:15:10;;;;;;;7.90;2.40;;;;;;;;;;4979977;28;20247;-70
2022/03/01 02:17:39;;;;;;;3.13;2.10;;;;;;;;;;4976215;28;20219;-70
2022/03/01 02:20:09;;;;;;;2.67;1.60;;;;;;;;;;4975977;28;20253;-70
2022/03/01 02:22:36;;;;;;;3.27;2.50;;;;;;;;;;4979274;28;20202;-70
2022/03/01 02:25:03;;;;;;;2.93;1.90;;;;;;;;;;4979062;28;20222;-69
2022/03/01 02:27:30;;;;;;;1.80;1.70;;;;;;;;;;4979900;28;20208;-69
2022/03/01 02:29:57;;;;;;;2.80;1.70;;;;;;;;;;4978316;28;20202;-70
2022/03/01 02:32:24;;;;;;;1.83;1.53;;;;;;;;;;4974279;28;20206;-69
2022/03/01 02:34:51;;;;;;;2.33;2.07;;;;;;;;;;4978580;28;20202;-70
2022/03/01 02:37:20;;;;;;;3.77;1.97;;;;;;;;;;4981744;28;20206;-70
2022/03/01 02:39:47;;;;;;;4.63;2.37;;;;;;;;;;4981808;28;20217;-70
2022/03/01 02:42:14;;;;;;;4.63;2.43;;;;;;;;;;4982659;28;20210;-70
2022/03/01 02:44:41;;;;;;;1.83;1.40;;;;;;;;;;4982094;28;20353;-70
2022/03/01 02:47:08;;;;;;;4.47;2.27;;;;;;;;;;4981064;28;20226;-69
2022/03/01 02:49:35;;;;;;;2.73;1.70;;;;;;;;;;4980221;28;20206;-69
2022/03/01 02:52:02;;;;;;;4.93;2.70;;;;;;;;;;4981016;28;20312;-69
2022/03/01 02:54:31;;;;;;;2.77;2.57;;;;;;;;;;4982872;28;20264;-69
2022/03/01 02:57:01;;;;;;;6.33;3.27;;;;;;;;;;4981335;28;20228;-70
2022/03/01 02:59:28;;;;;;;6.93;2.20;;;;;;;;;;4980661;28;20782;-70
2022/03/01 03:01:55;;;;;;;3.33;2.37;;;;;;;;;;4981756;28;20215;-69
2022/03/01 03:04:22;;;;;;;14.47;2.60;;;;;;;;;;4979623;28;20230;-69
2022/03/01 03:06:49;;;;;;;3.93;1.87;;;;;;;;;;4982510;28;20241;-70
2022/03/01 03:09:16;;;;;;;4.37;2.47;;;;;;;;;;4982047;28;20209;-70
2022/03/01 03:11:45;;;;;;;4.87;2.00;;;;;;;;;;4980363;28;20672;-69
2022/03/01 03:14:12;;;;;;;4.43;2.00;;;;;;;;;;4990167;28;20435;-70
2022/03/01 03:16:39;;;;;;;2.77;2.20;;;;;;;;;;4990327;28;20260;-69
2022/03/01 03:19:06;;;;;;;6.13;2.63;;;;;;;;;;4988933;28;20675;-70
2022/03/01 03:21:33;;;;;;;2.10;1.73;;;;;;;;;;4990379;28;20213;-70
2022/03/01 03:24:00;;;;;;;3.13;2.47;;;;;;;;;;4987051;28;20202;-70
2022/03/01 03:26:27;;;;;;;2.87;2.27;;;;;;;;;;4990747;28;20230;-69
2022/03/01 03:28:56;;;;;;;3.07;1.30;;;;;;;;;;4987911;28;20260;-70
2022/03/01 03:31:23;;;;;;;2.23;1.83;;;;;;;;;;4990539;28;20675;-69
2022/03/01 03:33:50;;;;;;;3.73;1.27;;;;;;;;;;4986944;28;20216;-69
2022/03/01 03:36:17;;;;;;;2.83;1.00;;;;;;;;;;4989000;28;20213;-69
2022/03/01 03:38:44;;;;;;;3.30;1.90;;;;;;;;;;4988077;28;20240;-68
2022/03/01 03:41:11;;;;;;;2.07;1.30;;;;;;;;;;4989979;28;20219;-68
2022/03/01 03:43:38;;;;;;;3.80;1.97;;;;;;;;;;4986519;28;20211;-68
2022/03/01 03:46:07;;;;;;;5.00;2.03;;;;;;;;;;4990350;28;20221;-70
2022/03/01 03:48:34;;;;;;;1.87;1.77;;;;;;;;;;4988939;28;20212;-70
2022/03/01 03:51:01;;;;;;;2.70;1.50;;;;;;;;;;4989288;28;20223;-70
2022/03/01 03:53:28;;;;;;;4.90;1.73;;;;;;;;;;4989869;28;20216;-70
2022/03/01 03:55:55;;;;;;;3.10;1.40;;;;;;;;;;4989035;28;20215;-69
2022/03/01 03:58:22;;;;;;;2.47;1.27;;;;;;;;;;4988723;28;20836;-70
2022/03/01 04:00:49;;;;;;;4.87;2.33;;;;;;;;;;4990170;28;20246;-70
2022/03/01 04:03:18;;;;;;;1.00;1.00;;;;;;;;;;4985047;28;20216;-70
2022/03/01 04:05:45;;;;;;;2.30;1.20;;;;;;;;;;4989826;28;20282;-70
2022/03/01 04:08:13;;;;;;;3.17;2.40;;;;;;;;;;4987901;28;20258;-70
2022/03/01 04:10:40;;;;;;;2.27;2.07;;;;;;;;;;4990112;28;20209;-70
2022/03/01 04:13:07;;;;;;;4.53;2.10;;;;;;;;;;4987520;28;20219;-70
2022/03/01 04:15:34;;;;;;;4.03;2.10;;;;;;;;;;4990277;28;20227;-70
2022/03/01 04:18:01;;;;;;;1.93;1.63;;;;;;;;;;4987773;28;20237;-71
2022/03/01 04:20:30;;;;;;;6.53;2.93;;;;;;;;;;4987658;28;20308;-70
2022/03/01 04:22:57;;;;;;;4.57;2.00;;;;;;;;;;4987230;28;20218;-70
2022/03/01 04:25:24;;;;;;;2.73;1.53;;;;;;;;;;4989576;28;20236;-69
2022/03/01 04:27:51;;;;;;;2.23;1.90;;;;;;;;;;4988277;28;20274;-69
2022/03/01 04:30:18;;;;;;;2.87;1.13;;;;;;;;;;4989985;28;20205;-70
2022/03/01 04:32:46;;;;;;;2.10;1.90;;;;;;;;;;4987026;28;20568;-69
2022/03/01 04:35:13;;;;;;;2.03;1.87;;;;;;;;;;4972844;28;20257;-70
2022/03/01 04:37:43;;;;;;;1.80;1.70;;;;;;;;;;4987663;28;20212;-70
2022/03/01 04:40:11;;;;;;;4.87;1.97;;;;;;;;;;4989704;28;20212;-70
2022/03/01 04:42:38;;;;;;;2.17;1.67;;;;;;;;;;4986983;28;20209;-70
2022/03/01 04:45:06;;;;;;;4.83;1.90;;;;;;;;;;4988913;28;20225;-70
2022/03/01 04:47:33;;;;;;;3.53;2.50;;;;;;;;;;4988141;28;20638;-68
2022/03/01 04:50:00;;;;;;;7.63;2.00;;;;;;;;;;4989309;28;20217;-71
2022/03/01 04:52:27;;;;;;;4.27;1.97;;;;;;;;;;4984832;28;20213;-68
2022/03/01 04:54:55;;;;;;;6.23;1.77;;;;;;;;;;4989071;28;20217;-69
2022/03/01 04:57:22;;;;;;;3.17;2.10;;;;;;;;;;4987680;28;20211;-68
2022/03/01 04:59:49;;;;;;;7.23;2.40;;;;;;;;;;4986841;28;20565;-69
2022/03/01 05:02:16;;;;;;;2.60;2.27;;;;;;;;;;4987945;28;20212;-69
2022/03/01 05:04:43;;;;;;;3.77;1.67;;;;;;;;;;4986579;28;20209;-68
2022/03/01 05:07:10;;;;;;;4.93;1.77;;;;;;;;;;4989157;28;20239;-69
2022/03/01 05:09:37;;;;;;;4.40;2.00;;;;;;;;;;4987557;28;20209;-69
2022/03/01 05:12:06;;;;;;;2.33;1.67;;;;;;;;;;4989357;28;20204;-69
2022/03/01 05:14:33;;;;;;;5.57;2.30;;;;;;;;;;4987268;28;20210;-69
2022/03/01 05:17:00;;;;;;;2.10;1.50;;;;;;;;;;4986828;28;20597;-70
2022/03/01 05:19:29;;;;;;;1.73;1.63;;;;;;;;;;4988694;28;20628;-68
2022/03/01 05:21:56;;;;;;;3.40;1.53;;;;;;;;;;4988199;28;20211;-68
2022/03/01 05:24:23;;;;;;;0.80;0.80;;;;;;;;;;4988767;28;20259;-68
2022/03/01 05:26:50;;;;;;;4.30;2.03;;;;;;;;;;4988840;28;20561;-68
2022/03/01 05:29:18;;;;;;;3.50;1.60;;;;;;;;;;4988427;28;20265;-68
2022/03/01 05:31:46;;;;;;;2.83;2.27;;;;;;;;;;4986945;28;20220;-70
2022/03/01 05:34:13;;;;;;;2.77;2.23;;;;;;;;;;4989557;28;20714;-70
2022/03/01 05:36:40;;;;;;;2.63;2.43;;;;;;;;;;4988294;28;20637;-69
2022/03/01 05:39:07;;;;;;;2.33;1.50;;;;;;;;;;4988046;28;20214;-68
2022/03/01 05:41:34;;;;;;;4.63;2.57;;;;;;;;;;4987526;28;20215;-68
2022/03/01 05:44:01;;;;;;;3.67;2.30;;;;;;;;;;4988566;28;20217;-68
2022/03/01 05:46:30;;;;;;;1.70;1.60;;;;;;;;;;4987812;28;20231;-69
2022/03/01 05:48:57;;;;;;;2.90;2.13;;;;;;;;;;4978526;28;20215;-69
2022/03/01 05:51:24;;;;;;;1.60;1.50;;;;;;;;;;4969237;28;20219;-69
2022/03/01 05:53:53;;;;;;;2.10;1.23;;;;;;;;;;4972653;28;20217;-68
2022/03/01 05:56:20;;;;;;;2.43;1.37;;;;;;;;;;4988890;28;20301;-69
2022/03/01 05:58:47;;;;;;;8.77;2.00;;;;;;;;;;4987372;28;20211;-68
2022/03/01 06:01:14;;;;;;;2.90;1.93;;;;;;;;;;4985761;28;20211;-68
2022/03/01 06:03:43;;;;;;;5.13;2.47;;;;;;;;;;4988246;28;20233;-68
2022/03/01 06:06:10;;;;;;;2.93;1.83;;;;;;;;;;4988441;28;20238;-68
2022/03/01 06:08:37;;;;;;;1.50;1.17;;;;;;;;;;4986080;28;20245;-68
2022/03/01 06:11:04;;;;;;;3.70;2.90;;;;;;;;;;4987972;28;20581;-69
2022/03/01 06:13:31;;;;;;;6.10;1.97;;;;;;;;;;4987342;28;20274;-69
2022/03/01 06:16:00;;;;;;;2.57;1.90;;;;;;;;;;4989258;28;20239;-74
2022/03/01 06:18:27;;;;;;;5.20;1.97;;;;;;;;;;4986053;28;20217;-68
2022/03/01 06:20:55;;;;;;;1.90;1.57;;;;;;;;;;4990567;28;20210;-69
2022/03/01 06:23:23;;;;;;;4.90;2.07;;;;;;;;;;4990510;28;20808;-69
2022/03/01 06:25:50;;;;;;;2.77;1.53;;;;;;;;;;4988210;28;20639;-68
2022/03/01 06:28:17;;;;;;;1.40;1.30;;;;;;;;;;4987231;28;20206;-68
2022/03/01 06:30:45;;;;;;;2.00;1.40;;;;;;;;;;4987069;28;20210;-68
2022/03/01 06:33:12;;;;;;;0.70;0.70;;;;;;;;;;4989001;28;20631;-68
2022/03/01 06:35:39;;;;;;;2.43;1.13;;;;;;;;;;4988984;28;20211;-74
2022/03/01 06:38:08;;;;;;;3.53;1.97;;;;;;;;;;4985456;28;20206;-70
2022/03/01 06:40:35;;;;;;;3.93;1.87;;;;;;;;;;4986283;28;20206;-70
2022/03/01 06:43:02;;;;;;;1.23;0.80;;;;;;;;;;4986901;28;20208;-69
2022/03/01 06:45:29;;;;;;;2.37;2.17;;;;;;;;;;4987984;28;20234;-68
2022/03/01 06:47:56;;;;;;;1.63;1.53;;;;;;;;;;4987703;28;20550;-70
2022/03/01 06:50:25;;;;;;;1.10;0.90;;;;;;;;;;4989039;28;20205;-69
2022/03/01 06:52:52;;;;;;;1.70;1.10;;;;;;;;;;4988570;28;20214;-69
2022/03/01 06:55:21;;;;;;;1.73;1.17;;;;;;;;;;4988134;28;20207;-69
2022/03/01 06:57:49;;;;;;;4.27;2.43;;;;;;;;;;4991052;28;20210;-69
2022/03/01 07:00:16;;;;;;;2.30;1.90;;;;;;;;;;4990762;28;20232;-69
2022/03/01 07:02:44;;;;;;;6.77;2.37;;;;;;;;;;4989590;28;20284;-69
2022/03/01 07:05:12;;;;;;;1.57;1.20;;;;;;;;;;4989899;28;20248;-69
2022/03/01 07:07:39;;;;;;;3.40;1.90;;;;;;;;;;4989317;28;20282;-69
2022/03/01 07:10:07;;;;;;;0.57;0.57;;;;;;;;;;4990892;28;20216;-69
2022/03/01 07:12:36;;;;;;;1.37;0.87;;;;;;;;;;4989669;28;20205;-71
2022/03/01 07:15:03;;;;;;;4.33;2.00;;;;;;;;;;4988858;28;20224;-69
2022/03/01 07:17:30;;;;;;;3.77;1.30;;;;;;;;;;4987193;28;20237;-69
2022/03/01 07:19:57;;;;;;;1.70;0.70;;;;;;;;;;4988333;28;20212;-69
2022/03/01 07:22:25;;;;;;;1.40;1.30;;;;;;;;;;4986883;28;20208;-69
2022/03/01 07:24:52;;;;;;;16.37;2.10;;;;;;;;;;4987597;28;20205;-69
2022/03/01 07:27:19;;;;;;;2.70;2.40;;;;;;;;;;4988248;28;20221;-69
2022/03/01 07:29:47;;;;;;;3.47;1.87;;;;;;;;;;4987584;28;20208;-69
2022/03/01 07:32:14;;;;;;;5.13;2.73;;;;;;;;;;4987382;28;20205;-69
2022/03/01 07:34:42;;;;;;;3.70;2.27;;;;;;;;;;4987551;28;20219;-69
2022/03/01 07:37:09;;;;;;;2.20;2.00;;;;;;;;;;4987713;28;20208;-69
2022/03/01 07:39:37;;;;;;;6.23;3.30;;;;;;;;;;4988471;28;20311;-69
2022/03/01 07:42:05;;;;;;;0.67;0.50;;;;;;;;;;4988479;28;20829;-69
2022/03/01 07:44:37;;;;;;;3.40;2.13;;;;;;;;;;4988056;28;20293;-69
2022/03/01 07:47:07;;;;;;;1.83;1.20;;;;;;;;;;4988469;28;20222;-70
2022/03/01 07:49:34;;;;;;;4.20;2.83;;;;;;;;;;4987685;28;20295;-69
2022/03/01 07:52:01;;;;;;;1.50;1.23;;;;;;;;;;4988392;28;20212;-69
2022/03/01 07:54:28;;;;;;;2.03;1.30;;;;;;;;;;4987436;28;20212;-69
2022/03/01 07:56:55;;;;;;;0.93;0.93;;;;;;;;;;4988397;28;20225;-70
2022/03/01 07:59:22;;;;;;;0.57;0.57;;;;;;;;;;4985442;28;20210;-70
2022/03/01 08:01:49;;;;;;;1.10;1.03;;;;;;;;;;4988037;28;20217;-70
2022/03/01 08:04:19;;;;;;;3.20;1.97;;;;;;;;;;4987565;28;20683;-71
2022/03/01 08:06:46;;;;;;;1.93;1.77;;;;;;;;;;4987366;28;20347;-71
2022/03/01 08:09:13;;;;;;;3.70;1.83;;;;;;;;;;4987715;28;20217;-70
2022/03/01 08:11:40;;;;;;;4.87;2.13;;;;;;;;;;4987442;28;20867;-70
2022/03/01 08:14:07;;;;;;;4.83;2.73;;;;;;;;;;4987841;28;20206;-70
2022/03/01 08:16:35;;;;;;;4.73;1.93;;;;;;;;;;4988214;28;20229;-70
2022/03/01 08:19:02;;;;;;;5.17;1.60;;;;;;;;;;4988375;28;20209;-71
2022/03/01 08:21:30;;;;;;;0.73;0.70;;;;;;;;;;4987403;28;20198;-70
2022/03/01 08:23:57;;;;;;;1.20;0.80;;;;;;;;;;4986582;28;20971;-70
2022/03/01 08:26:24;;;;;;;1.63;1.53;;;;;;;;;;4986780;28;20572;-70
2022/03/01 08:28:51;;;;;;;1.70;1.50;;;;;;;;;;4986841;28;20210;-70
2022/03/01 08:31:18;;;;;;;5.47;1.87;;;;;;;;;;4987754;28;20214;-68
2022/03/01 08:33:46;;;;;;;5.40;2.03;;;;;;;;;;4987485;28;20689;-70
2022/03/01 08:36:13;;;;;;;2.90;1.73;;;;;;;;;;4986779;28;20253;-70
2022/03/01 08:38:42;;;;;;;2.07;1.63;;;;;;;;;;4987683;28;20197;-70
2022/03/01 08:41:09;;;;;;;1.60;1.50;;;;;;;;;;4987635;28;20208;-69
2022/03/01 08:43:36;;;;;;;2.17;0.97;;;;;;;;;;4984760;28;20205;-69
2022/03/01 08:46:03;;;;;;;7.75;4.30;;;;;;;;;;4984967;28;20942;-71
2022/03/01 08:48:31;;;;;;;2.83;1.90;;;;;;;;;;4987264;28;20661;-68
2022/03/01 08:50:58;;;;;;;4.40;3.20;;;;;;;;;;4987775;28;20955;-69
2022/03/01 08:53:25;;;;;;;4.20;2.57;;;;;;;;;;4987308;28;20213;-69
2022/03/01 08:55:53;;;;;;;4.23;1.80;;;;;;;;;;4987463;28;20219;-70
2022/03/01 08:58:20;;;;;;;2.87;2.60;;;;;;;;;;4986308;28;20219;-70
2022/03/01 09:00:48;;;;;;;4.67;1.73;;;;;;;;;;4985688;28;20271;-68
2022/03/01 09:03:15;;;;;;;5.23;2.40;;;;;;;;;;4978936;28;20282;-68
2022/03/01 09:05:42;;;;;;;2.10;1.20;;;;;;;;;;4982085;28;20668;-71
2022/03/01 09:08:12;;;;;;;2.03;1.83;;;;;;;;;;5003553;28;20248;-70
2022/03/01 09:10:39;;;;;;;2.63;1.60;;;;;;;;;;4994550;28;20319;-70
2022/03/01 09:13:08;;;;;;;1.57;1.47;;;;;;;;;;4988390;28;20208;-71
2022/03/01 09:15:35;;;;;;;4.33;3.07;;;;;;;;;;4987816;28;20230;-70
2022/03/01 09:18:03;;;;;;;3.03;2.60;;;;;;;;;;4988412;28;20212;-70
2022/03/01 09:20:30;;;;;;;0.37;0.33;;;;;;;;;;4987933;28;20729;-70
2022/03/01 09:22:58;;;;;;;2.70;2.50;;;;;;;;;;4988735;28;20205;-70
2022/03/01 09:25:26;;;;;;;2.47;1.87;;;;;;;;;;4988815;28;20679;-70
2022/03/01 09:27:53;;;;;;;7.77;3.30;;;;;;;;;;4988031;28;20233;-70
2022/03/01 09:30:21;;;;;;;4.60;2.90;;;;;;;;;;4988282;28;20206;-71
2022/03/01 09:32:49;;;;;;;5.00;2.60;;;;;;;;;;4987758;28;20589;-71
2022/03/01 09:35:17;;;;;;;10.90;3.97;;;;;;;;;;4988668;28;20291;-70
2022/03/01 09:37:45;;;;;;;4.80;2.90;;;;;;;;;;4988266;28;20208;-70
2022/03/01 09:40:12;;;;;;;2.03;1.60;;;;;;;;;;4988524;28;20215;-70
2022/03/01 09:42:39;;;;;;;6.43;3.47;;;;;;;;;;4987638;28;20226;-70
2022/03/01 09:45:07;;;;;;;6.90;2.60;;;;;;;;;;4988208;28;20216;-68
2022/03/01 09:47:36;;;;;;;4.83;1.87;;;;;;;;;;4989116;28;20234;-69
2022/03/01 09:50:03;;;;;;;2.23;2.13;;;;;;;;;;4991758;28;20942;-70
2022/03/01 09:52:30;;;;;;;5.37;2.60;;;;;;;;;;4992348;28;20700;-69
2022/03/01 09:54:57;;;;;;;3.43;2.13;;;;;;;;;;4992049;28;20225;-69
2022/03/01 09:57:24;;;;;;;3.23;2.63;;;;;;;;;;4985156;28;20198;-69
2022/03/01 09:59:51;;;;;;;3.40;2.17;;;;;;;;;;4985565;28;20216;-70
2022/03/01 10:02:18;;;;;;;3.80;2.73;;;;;;;;;;4991912;28;20214;-69
2022/03/01 10:04:53;;;;;;;2.73;2.20;;;;;;;;;;4991762;28;20209;-69
2022/03/01 10:07:24;;;;;;;1.57;1.00;;;;;;;;;;4985131;28;20334;-72
2022/03/01 10:09:51;;;;;;;5.40;2.77;;;;;;;;;;4990431;28;20211;-71
2022/03/01 10:12:23;;;;;;;3.33;1.73;;;;;;;;;;4990676;28;20216;-71
2022/03/01 10:14:58;;;;;;;4.20;2.33;;;;;;;;;;4991504;28;20992;-71
2022/03/01 10:17:25;;;;;;;7.70;3.13;;;;;;;;;;4983067;28;20243;-71
2022/03/01 10:20:02;;;;;;;4.83;2.73;;;;;;;;;;4991341;28;20212;-72
2022/03/01 10:22:29;;;;;;;4.60;2.13;;;;;;;;;;4991566;28;20232;-71
2022/03/01 10:25:03;;;;;;;4.70;2.80;;;;;;;;;;4990977;28;20220;-70
2022/03/01 10:27:30;;;;;;;5.40;2.03;;;;;;;;;;4991007;28;20226;-71
2022/03/01 10:29:57;;;;;;;3.27;1.97;;;;;;;;;;4990736;28;20232;-71
2022/03/01 10:32:25;;;;;;;3.83;2.17;;;;;;;;;;4990799;28;20221;-71
2022/03/01 10:35:04;;;;;;;5.40;3.00;;;;;;;;;;4990704;28;20223;-71
2022/03/01 10:37:33;;;;;;;5.10;2.90;;;;;;;;;;4990820;28;20239;-72
2022/03/01 10:40:13;;;;;;;2.80;1.27;;;;;;;;;;4990607;28;20236;-71
2022/03/01 10:42:41;;;;;;;3.17;2.07;;;;;;;;;;4990554;28;20235;-71
2022/03/01 10:45:09;;;;;;;3.23;2.93;;;;;;;;;;4990150;28;20246;-72
2022/03/01 10:47:37;;;;;;;3.43;2.80;;;;;;;;;;4990759;28;20259;-72
2022/03/01 10:50:07;;;;;;;3.23;2.43;;;;;;;;;;4990977;28;20219;-72
2022/03/01 10:52:34;;;;;;;6.37;3.47;;;;;;;;;;4990277;28;20206;-72
2022/03/01 10:55:01;;;;;;;4.77;2.73;;;;;;;;;;4990124;28;20316;-72
2022/03/01 10:57:28;;;;;;;3.80;2.33;;;;;;;;;;4990897;28;20217;-72
2022/03/01 10:59:55;;;;;;;2.77;2.13;;;;;;;;;;4988762;28;20214;-72
2022/03/01 11:02:22;;;;;;;4.53;3.30;;;;;;;;;;4990484;28;20213;-71
2022/03/01 11:04:50;;;;;;;4.37;2.17;;;;;;;;;;4990051;28;20272;-72
2022/03/01 11:07:20;;;;;;;3.80;2.93;;;;;;;;;;4990542;28;20241;-71
2022/03/01 11:09:47;;;;;;;2.97;2.27;;;;;;;;;;4981472;28;20211;-72
2022/03/01 11:12:18;;;;;;;3.67;2.43;;;;;;;;;;4987545;28;20216;-71
2022/03/01 11:14:50;;;;;;;5.77;2.67;;;;;;;;;;4990464;28;20232;-72
2022/03/01 11:17:21;;;;;;;3.03;2.27;;;;;;;;;;4990381;28;20213;-72
2022/03/01 11:19:55;;;;;;;6.60;2.37;;;;;;;;;;4990081;28;20206;-72
2022/03/01 11:22:26;;;;;;;2.87;2.67;;;;;;;;;;4989769;28;20209;-72
2022/03/01 11:24:54;;;;;;;3.40;2.60;;;;;;;;;;4989877;28;20752;-73
2022/03/01 11:27:21;;;;;;;5.57;3.13;;;;;;;;;;4990184;28;20217;-72
2022/03/01 11:29:49;;;;;;;6.50;3.00;;;;;;;;;;4989791;28;20218;-72
2022/03/01 11:32:17;;;;;;;3.90;2.10;;;;;;;;;;4989162;28;20206;-71
2022/03/01 11:34:44;;;;;;;5.07;2.87;;;;;;;;;;4978865;28;20633;-72
2022/03/01 11:37:16;;;;;;;6.73;3.37;;;;;;;;;;4987922;28;20209;-72
2022/03/01 11:39:44;;;;;;;4.47;3.23;;;;;;;;;;4988748;28;20308;-72
2022/03/01 11:42:14;;;;;;;3.90;2.73;;;;;;;;;;4990233;28;20672;-68
2022/03/01 11:44:45;;;;;;;5.00;2.23;;;;;;;;;;4989847;28;20213;-74
2022/03/01 11:47:23;;;;;;;5.10;3.50;;;;;;;;;;4989814;28;20336;-69
2022/03/01 11:49:50;;;;;;;2.63;2.40;;;;;;;;;;4990068;28;20209;-66
2022/03/01 11:52:19;;;;;;;5.00;1.90;;;;;;;;;;4989905;28;20213;-65
2022/03/01 11:54:48;;;;;;;6.63;3.10;;;;;;;;;;4989905;28;20209;-67
2022/03/01 11:57:15;;;;;;;3.47;2.63;;;;;;;;;;4988642;28;20201;-71
2022/03/01 11:59:43;;;;;;;1.63;1.53;;;;;;;;;;4989525;28;20830;-70
2022/03/01 12:02:11;;;;;;;6.43;3.20;;;;;;;;;;4988584;28;20215;-71
2022/03/01 12:04:44;;;;;;;4.73;2.97;;;;;;;;;;4984766;28;20210;-71
2022/03/01 12:07:12;;;;;;;4.80;2.57;;;;;;;;;;4989155;28;20700;-71
2022/03/01 12:09:39;;;;;;;3.73;2.30;;;;;;;;;;4989347;28;20213;-70
2022/03/01 12:12:09;;;;;;;3.93;2.67;;;;;;;;;;4989707;28;20217;-70
2022/03/01 12:14:38;;;;;;;1.60;1.50;;;;;;;;;;4989315;28;20214;-64
2022/03/01 12:17:06;;;;;;;5.50;3.80;;;;;;;;;;4987847;28;20531;-63
2022/03/01 12:19:34;;;;;;;2.90;2.60;;;;;;;;;;4989488;28;20244;-72
2022/03/01 12:22:03;;;;;;;2.50;2.30;;;;;;;;;;4989681;28;20209;-72
2022/03/01 12:24:31;;;;;;;3.43;2.50;;;;;;;;;;4988788;28;20260;-71
2022/03/01 12:26:59;;;;;;;3.23;2.57;;;;;;;;;;4988553;28;20206;-71
2022/03/01 12:29:28;;;;;;;2.63;2.37;;;;;;;;;;4989112;28;20267;-72
2022/03/01 12:31:56;;;;;;;1.97;1.63;;;;;;;;;;4980258;28;20749;-69
2022/03/01 12:34:25;;;;;;;1.67;1.57;;;;;;;;;;4986998;28;20233;-75
2022/03/01 12:36:54;;;;;;;1.30;1.23;;;;;;;;;;4984677;28;20300;-73
2022/03/01 12:39:22;;;;;;;3.60;2.30;;;;;;;;;;4986184;28;20209;-71
2022/03/01 12:41:49;;;;;;;3.73;2.47;;;;;;;;;;4988975;28;20217;-71
2022/03/01 12:44:18;;;;;;;4.33;2.63;;;;;;;;;;4988892;28;20217;-68
2022/03/01 12:46:46;;;;;;;2.17;1.37;;;;;;;;;;4988261;28;20213;-70
2022/03/01 12:49:15;;;;;;;1.90;1.80;;;;;;;;;;4987702;28;20236;-66
2022/03/01 12:51:42;;;;;;;1.97;1.87;;;;;;;;;;4988556;28;20210;-70
2022/03/01 12:54:10;;;;;;;2.27;1.83;;;;;;;;;;4988044;28;20221;-69
2022/03/01 12:56:38;;;;;;;1.67;1.60;;;;;;;;;;4988000;28;20214;-69
2022/03/01 12:59:07;;;;;;;1.87;1.77;;;;;;;;;;4979545;28;20264;-69
2022/03/01 13:01:35;;;;;;;1.40;1.33;;;;;;;;;;4981433;28;21810;-73
2022/03/01 13:04:04;;;;;;;3.30;1.63;;;;;;;;;;4985183;28;20206;-69
2022/03/01 13:06:32;;;;;;;7.33;2.20;;;;;;;;;;4984515;28;20213;-70
2022/03/01 13:08:59;;;;;;;2.17;1.80;;;;;;;;;;4984892;28;20274;-69
2022/03/01 13:11:26;;;;;;;2.57;2.17;;;;;;;;;;4985161;28;20732;-69
2022/03/01 13:13:56;;;;;;;1.83;1.60;;;;;;;;;;4984634;28;20209;-69
2022/03/01 13:16:25;;;;;;;5.43;2.60;;;;;;;;;;4983112;28;20245;-70
2022/03/01 13:18:53;;;;;;;1.63;1.63;;;;;;;;;;4970935;28;20210;-69
2022/03/01 13:21:26;;;;;;;3.50;2.07;;;;;;;;;;4985057;28;20214;-70
2022/03/01 13:23:54;;;;;;;1.27;1.17;;;;;;;;;;4983965;28;20269;-70
2022/03/01 13:26:21;;;;;;;2.77;2.10;;;;;;;;;;4984205;28;20259;-71
2022/03/01 13:28:48;;;;;;;3.27;1.80;;;;;;;;;;4976788;28;20290;-67
2022/03/01 13:31:22;;;;;;;4.37;2.13;;;;;;;;;;4975319;28;20220;-70
2022/03/01 13:33:54;;;;;;;3.03;2.10;;;;;;;;;;4984827;28;20212;-72
2022/03/01 13:36:21;;;;;;;1.10;1.10;;;;;;;;;;4985113;28;20229;-69
2022/03/01 13:38:58;;;;;;;6.33;2.77;;;;;;;;;;4984800;28;20304;-70
2022/03/01 13:41:25;;;;;;;4.73;2.90;;;;;;;;;;4967336;28;20214;-70
2022/03/01 13:43:52;;;;;;;1.33;1.27;;;;;;;;;;4967445;28;20218;-70
2022/03/01 13:46:19;;;;;;;4.47;2.90;;;;;;;;;;4982701;28;20232;-74
2022/03/01 13:48:47;;;;;;;3.03;2.03;;;;;;;;;;4984274;28;20225;-68
2022/03/01 13:51:14;;;;;;;3.53;2.00;;;;;;;;;;4983613;28;20221;-70
2022/03/01 13:53:41;;;;;;;2.57;2.37;;;;;;;;;;4983840;28;20213;-70
2022/03/01 13:56:09;;;;;;;1.87;1.77;;;;;;;;;;4983812;28;20268;-68
2022/03/01 13:58:37;;;;;;;2.00;1.90;;;;;;;;;;4983516;28;20206;-65
2022/03/01 14:01:06;;;;;;;2.97;2.03;;;;;;;;;;4983525;28;20222;-65
2022/03/01 14:03:35;;;;;;;2.73;2.03;;;;;;;;;;4983119;28;20993;-65
2022/03/01 14:06:03;;;;;;;4.57;2.27;;;;;;;;;;4964201;28;20205;-68
2022/03/01 14:08:31;;;;;;;2.13;2.00;;;;;;;;;;4983189;28;20248;-68
2022/03/01 14:10:59;;;;;;;1.93;1.83;;;;;;;;;;4975992;28;20217;-68
2022/03/01 14:13:31;;;;;;;2.20;1.67;;;;;;;;;;4981598;28;20213;-66
2022/03/01 14:16:04;;;;;;;2.77;2.53;;;;;;;;;;4982062;28;20281;-65
2022/03/01 14:18:35;;;;;;;1.90;1.80;;;;;;;;;;4984176;28;20202;-59
2022/03/01 14:21:02;;;;;;;1.97;1.50;;;;;;;;;;4982954;28;20209;-62
2022/03/01 14:23:29;;;;;;;3.27;2.00;;;;;;;;;;4983227;28;20218;-63
2022/03/01 14:25:58;;;;;;;3.07;2.00;;;;;;;;;;4982884;28;20264;-64
2022/03/01 14:28:25;;;;;;;1.73;1.70;;;;;;;;;;4985008;28;20613;-66
2022/03/01 14:30:54;;;;;;;2.47;1.73;;;;;;;;;;4979256;28;20567;-64
2022/03/01 14:33:21;;;;;;;2.67;1.60;;;;;;;;;;4984167;28;20217;-65
2022/03/01 14:35:48;;;;;;;2.83;2.13;;;;;;;;;;4988541;28;20209;-64
2022/03/01 14:38:15;;;;;;;3.17;1.70;;;;;;;;;;4987764;28;20268;-65
2022/03/01 14:40:42;;;;;;;2.97;2.40;;;;;;;;;;4988231;28;20432;-66
2022/03/01 14:43:09;;;;;;;3.03;1.73;;;;;;;;;;4987860;28;20209;-65
2022/03/01 14:45:36;;;;;;;2.97;2.00;;;;;;;;;;4988305;28;20201;-67